sensor_id;sensor_type;location;lat;lon;timestamp;temperature;humidity
17851;DHT22;9051;51.548;14.348;2022-11-15T00:00:51;7.40;99.90
17851;DHT22;9051;51.548;14.348;2022-11-15T00:03:42;7.40;99.90
17851;DHT22;9051;51.548;14.348;2022-11-15T00:06:34;7.30;99.90
17851;DHT22;9051;51.548;14.348;2022-11-15T00:09:26;7.30;99.90
17851;DHT22;9051;51.548;14.348;2022-11-15T00:12:17;7.20;99.90
17851;DHT22;9051;51.548;14.348;2022-11-15T00:15:08;7.20;99.90
17851;DHT22;9051;51.548;14.348;2022-11-15T00:17:59;7.10;99.90
17851;DHT22;9051;51.548;14.348;2022-11-15T00:20:49;7.10;99.90
17851;DHT22;9051;51.548;14.348;2022-11-15T00:23:40;7.10;99.90
17851;DHT22;9051;51.548;14.348;2022-11-15T00:26:32;7.10;99.90
17851;DHT22;9051;51.548;14.348;2022-11-15T00:29:23;7.10;99.90
17851;DHT22;9051;51.548;14.348;2022-11-15T00:32:14;7.00;99.90
17851;DHT22;9051;51.548;14.348;2022-11-15T00:35:05;6.90;99.90
17851;DHT22;9051;51.548;14.348;2022-11-15T00:37:55;6.90;99.90
17851;DHT22;9051;51.548;14.348;2022-11-15T00:40:46;6.90;99.90
17851;DHT22;9051;51.548;14.348;2022-11-15T00:43:39;6.90;99.90
17851;DHT22;9051;51.548;14.348;2022-11-15T00:46:32;6.80;99.90
17851;DHT22;9051;51.548;14.348;2022-11-15T00:49:23;6.80;99.90
17851;DHT22;9051;51.548;14.348;2022-11-15T00:52:13;6.70;99.90
17851;DHT22;9051;51.548;14.348;2022-11-15T00:55:05;6.60;99.90
17851;DHT22;9051;51.548;14.348;2022-11-15T00:57:55;6.70;99.90
17851;DHT22;9051;51.548;14.348;2022-11-15T01:00:49;6.80;99.90
17851;DHT22;9051;51.548;14.348;2022-11-15T01:03:40;6.80;99.90
17851;DHT22;9051;51.548;14.348;2022-11-15T01:06:31;6.90;99.90
17851;DHT22;9051;51.548;14.348;2022-11-15T01:09:22;6.90;99.90
17851;DHT22;9051;51.548;14.348;2022-11-15T01:12:12;6.90;99.90
17851;DHT22;9051;51.548;14.348;2022-11-15T01:15:04;7.00;99.90
17851;DHT22;9051;51.548;14.348;2022-11-15T01:17:56;7.00;99.90
17851;DHT22;9051;51.548;14.348;2022-11-15T01:20:47;7.10;99.90
17851;DHT22;9051;51.548;14.348;2022-11-15T01:23:37;7.00;99.90
17851;DHT22;9051;51.548;14.348;2022-11-15T01:26:28;7.00;99.90
17851;DHT22;9051;51.548;14.348;2022-11-15T01:29:19;7.00;99.90
17851;DHT22;9051;51.548;14.348;2022-11-15T01:32:09;7.00;99.90
17851;DHT22;9051;51.548;14.348;2022-11-15T01:35:01;7.00;99.90
17851;DHT22;9051;51.548;14.348;2022-11-15T01:37:51;7.00;99.90
17851;DHT22;9051;51.548;14.348;2022-11-15T01:40:42;6.90;99.90
17851;DHT22;9051;51.548;14.348;2022-11-15T01:43:34;6.90;99.90
17851;DHT22;9051;51.548;14.348;2022-11-15T01:46:28;6.90;99.90
17851;DHT22;9051;51.548;14.348;2022-11-15T01:49:21;6.90;99.90
17851;DHT22;9051;51.548;14.348;2022-11-15T01:52:17;6.90;99.90
17851;DHT22;9051;51.548;14.348;2022-11-15T01:55:12;6.90;99.90
17851;DHT22;9051;51.548;14.348;2022-11-15T01:58:04;6.80;99.90
17851;DHT22;9051;51.548;14.348;2022-11-15T02:00:55;6.90;99.90
17851;DHT22;9051;51.548;14.348;2022-11-15T02:03:49;6.90;99.90
17851;DHT22;9051;51.548;14.348;2022-11-15T02:06:43;6.90;99.90
17851;DHT22;9051;51.548;14.348;2022-11-15T02:09:37;6.90;99.90
17851;DHT22;9051;51.548;14.348;2022-11-15T02:12:28;6.90;99.90
17851;DHT22;9051;51.548;14.348;2022-11-15T02:15:20;6.90;99.90
17851;DHT22;9051;51.548;14.348;2022-11-15T02:18:18;6.90;99.90
17851;DHT22;9051;51.548;14.348;2022-11-15T02:21:18;6.90;99.90
17851;DHT22;9051;51.548;14.348;2022-11-15T02:24:42;6.90;99.90
17851;DHT22;9051;51.548;14.348;2022-11-15T02:27:57;6.90;99.90
17851;DHT22;9051;51.548;14.348;2022-11-15T02:30:54;6.90;99.90
17851;DHT22;9051;51.548;14.348;2022-11-15T02:33:52;6.90;99.90
17851;DHT22;9051;51.548;14.348;2022-11-15T02:36:49;6.90;99.90
17851;DHT22;9051;51.548;14.348;2022-11-15T02:39:49;6.90;99.90
17851;DHT22;9051;51.548;14.348;2022-11-15T02:42:49;6.80;99.90
17851;DHT22;9051;51.548;14.348;2022-11-15T02:46:03;6.80;99.90
17851;DHT22;9051;51.548;14.348;2022-11-15T02:48:57;6.80;99.90
17851;DHT22;9051;51.548;14.348;2022-11-15T02:51:49;6.70;99.90
17851;DHT22;9051;51.548;14.348;2022-11-15T02:54:40;6.80;99.90
17851;DHT22;9051;51.548;14.348;2022-11-15T02:57:39;6.80;99.90
17851;DHT22;9051;51.548;14.348;2022-11-15T03:00:35;6.80;99.90
17851;DHT22;9051;51.548;14.348;2022-11-15T03:03:43;6.70;99.90
17851;DHT22;9051;51.548;14.348;2022-11-15T03:06:42;6.70;99.90
17851;DHT22;9051;51.548;14.348;2022-11-15T03:09:42;6.70;99.90
17851;DHT22;9051;51.548;14.348;2022-11-15T03:12:41;6.80;99.90
17851;DHT22;9051;51.548;14.348;2022-11-15T03:15:38;6.70;99.90
17851;DHT22;9051;51.548;14.348;2022-11-15T03:18:35;6.70;99.90
17851;DHT22;9051;51.548;14.348;2022-11-15T03:21:28;6.70;99.90
17851;DHT22;9051;51.548;14.348;2022-11-15T03:24:22;6.70;99.90
17851;DHT22;9051;51.548;14.348;2022-11-15T03:27:19;6.70;99.90
17851;DHT22;9051;51.548;14.348;2022-11-15T03:30:13;6.70;99.90
17851;DHT22;9051;51.548;14.348;2022-11-15T03:33:04;6.70;99.90
17851;DHT22;9051;51.548;14.348;2022-11-15T03:35:56;6.60;99.90
17851;DHT22;9051;51.548;14.348;2022-11-15T03:38:47;6.60;99.90
17851;DHT22;9051;51.548;14.348;2022-11-15T03:41:44;6.60;99.90
17851;DHT22;9051;51.548;14.348;2022-11-15T03:44:42;6.50;99.90
17851;DHT22;9051;51.548;14.348;2022-11-15T03:47:39;6.50;99.90
17851;DHT22;9051;51.548;14.348;2022-11-15T03:50:32;6.50;99.90
17851;DHT22;9051;51.548;14.348;2022-11-15T03:53:24;6.50;99.90
17851;DHT22;9051;51.548;14.348;2022-11-15T03:56:15;6.40;99.90
17851;DHT22;9051;51.548;14.348;2022-11-15T03:59:06;6.40;99.90
17851;DHT22;9051;51.548;14.348;2022-11-15T04:01:56;6.50;99.90
17851;DHT22;9051;51.548;14.348;2022-11-15T04:04:47;6.50;99.90
17851;DHT22;9051;51.548;14.348;2022-11-15T04:07:37;6.50;99.90
17851;DHT22;9051;51.548;14.348;2022-11-15T04:10:29;6.50;99.90
17851;DHT22;9051;51.548;14.348;2022-11-15T04:13:20;6.60;99.90
17851;DHT22;9051;51.548;14.348;2022-11-15T04:16:10;6.50;99.90
17851;DHT22;9051;51.548;14.348;2022-11-15T04:19:01;6.50;99.90
17851;DHT22;9051;51.548;14.348;2022-11-15T04:22:09;6.40;99.90
17851;DHT22;9051;51.548;14.348;2022-11-15T04:25:17;6.30;99.90
17851;DHT22;9051;51.548;14.348;2022-11-15T04:28:10;6.10;99.90
17851;DHT22;9051;51.548;14.348;2022-11-15T04:31:00;6.10;99.90
17851;DHT22;9051;51.548;14.348;2022-11-15T04:33:51;6.00;99.90
17851;DHT22;9051;51.548;14.348;2022-11-15T04:36:44;5.90;99.90
17851;DHT22;9051;51.548;14.348;2022-11-15T04:39:53;5.80;99.90
17851;DHT22;9051;51.548;14.348;2022-11-15T04:42:44;5.80;99.90
17851;DHT22;9051;51.548;14.348;2022-11-15T04:45:36;5.80;99.90
17851;DHT22;9051;51.548;14.348;2022-11-15T04:48:27;5.80;99.90
17851;DHT22;9051;51.548;14.348;2022-11-15T04:51:18;5.80;99.90
17851;DHT22;9051;51.548;14.348;2022-11-15T04:54:09;5.70;99.90
17851;DHT22;9051;51.548;14.348;2022-11-15T04:56:59;5.70;99.90
17851;DHT22;9051;51.548;14.348;2022-11-15T04:59:50;5.60;99.90
17851;DHT22;9051;51.548;14.348;2022-11-15T05:02:42;5.60;99.90
17851;DHT22;9051;51.548;14.348;2022-11-15T05:05:50;5.60;99.90
17851;DHT22;9051;51.548;14.348;2022-11-15T05:08:40;5.60;99.90
17851;DHT22;9051;51.548;14.348;2022-11-15T05:11:31;5.50;99.90
17851;DHT22;9051;51.548;14.348;2022-11-15T05:14:22;5.50;99.90
17851;DHT22;9051;51.548;14.348;2022-11-15T05:17:13;5.50;99.90
17851;DHT22;9051;51.548;14.348;2022-11-15T05:20:06;5.50;99.90
17851;DHT22;9051;51.548;14.348;2022-11-15T05:22:57;5.50;99.90
17851;DHT22;9051;51.548;14.348;2022-11-15T05:25:47;5.40;99.90
17851;DHT22;9051;51.548;14.348;2022-11-15T05:28:39;5.40;99.90
17851;DHT22;9051;51.548;14.348;2022-11-15T05:31:32;5.40;99.90
17851;DHT22;9051;51.548;14.348;2022-11-15T05:34:24;5.30;99.90
17851;DHT22;9051;51.548;14.348;2022-11-15T05:37:17;5.30;99.90
17851;DHT22;9051;51.548;14.348;2022-11-15T05:40:08;5.30;99.90
17851;DHT22;9051;51.548;14.348;2022-11-15T05:43:01;5.30;99.90
17851;DHT22;9051;51.548;14.348;2022-11-15T05:45:53;5.30;99.90
17851;DHT22;9051;51.548;14.348;2022-11-15T05:48:46;5.20;99.90
17851;DHT22;9051;51.548;14.348;2022-11-15T05:51:38;5.20;99.90
17851;DHT22;9051;51.548;14.348;2022-11-15T05:54:31;5.20;99.90
17851;DHT22;9051;51.548;14.348;2022-11-15T05:57:23;5.30;99.90
17851;DHT22;9051;51.548;14.348;2022-11-15T06:00:15;5.30;99.90
17851;DHT22;9051;51.548;14.348;2022-11-15T06:03:05;5.40;99.90
17851;DHT22;9051;51.548;14.348;2022-11-15T06:05:56;5.40;99.90
17851;DHT22;9051;51.548;14.348;2022-11-15T06:08:47;5.40;99.90
17851;DHT22;9051;51.548;14.348;2022-11-15T06:11:39;5.50;99.90
17851;DHT22;9051;51.548;14.348;2022-11-15T06:14:29;5.40;99.90
17851;DHT22;9051;51.548;14.348;2022-11-15T06:17:20;5.40;99.90
17851;DHT22;9051;51.548;14.348;2022-11-15T06:20:11;5.40;99.90
17851;DHT22;9051;51.548;14.348;2022-11-15T06:23:03;5.30;99.90
17851;DHT22;9051;51.548;14.348;2022-11-15T06:25:57;5.30;99.90
17851;DHT22;9051;51.548;14.348;2022-11-15T06:28:48;5.30;99.90
17851;DHT22;9051;51.548;14.348;2022-11-15T06:31:39;5.30;99.90
17851;DHT22;9051;51.548;14.348;2022-11-15T06:34:30;5.20;99.90
17851;DHT22;9051;51.548;14.348;2022-11-15T06:37:21;5.20;99.90
17851;DHT22;9051;51.548;14.348;2022-11-15T06:40:12;5.30;99.90
17851;DHT22;9051;51.548;14.348;2022-11-15T06:43:03;5.30;99.90
17851;DHT22;9051;51.548;14.348;2022-11-15T06:45:56;5.30;99.90
17851;DHT22;9051;51.548;14.348;2022-11-15T06:48:49;5.30;99.90
17851;DHT22;9051;51.548;14.348;2022-11-15T06:51:40;5.30;99.90
17851;DHT22;9051;51.548;14.348;2022-11-15T06:54:30;5.30;99.90
17851;DHT22;9051;51.548;14.348;2022-11-15T06:57:21;5.30;99.90
17851;DHT22;9051;51.548;14.348;2022-11-15T07:00:13;5.30;99.90
17851;DHT22;9051;51.548;14.348;2022-11-15T07:03:05;5.40;99.90
17851;DHT22;9051;51.548;14.348;2022-11-15T07:05:57;5.40;99.90
17851;DHT22;9051;51.548;14.348;2022-11-15T07:08:47;5.50;99.90
17851;DHT22;9051;51.548;14.348;2022-11-15T07:11:38;5.50;99.90
17851;DHT22;9051;51.548;14.348;2022-11-15T07:14:29;5.60;99.90
17851;DHT22;9051;51.548;14.348;2022-11-15T07:17:19;5.60;99.90
17851;DHT22;9051;51.548;14.348;2022-11-15T07:20:12;5.60;99.90
17851;DHT22;9051;51.548;14.348;2022-11-15T07:23:05;5.70;99.90
17851;DHT22;9051;51.548;14.348;2022-11-15T07:25:56;5.70;99.90
17851;DHT22;9051;51.548;14.348;2022-11-15T07:28:48;5.70;99.90
17851;DHT22;9051;51.548;14.348;2022-11-15T07:31:39;5.80;99.90
17851;DHT22;9051;51.548;14.348;2022-11-15T07:34:30;5.80;99.90
17851;DHT22;9051;51.548;14.348;2022-11-15T07:37:22;5.90;99.90
17851;DHT22;9051;51.548;14.348;2022-11-15T07:40:13;6.00;99.90
17851;DHT22;9051;51.548;14.348;2022-11-15T07:43:05;6.10;99.90
17851;DHT22;9051;51.548;14.348;2022-11-15T07:45:56;6.20;99.90
17851;DHT22;9051;51.548;14.348;2022-11-15T07:48:46;6.20;99.90
17851;DHT22;9051;51.548;14.348;2022-11-15T07:51:37;6.30;99.90
17851;DHT22;9051;51.548;14.348;2022-11-15T07:54:29;6.30;99.90
17851;DHT22;9051;51.548;14.348;2022-11-15T07:57:20;6.40;99.90
17851;DHT22;9051;51.548;14.348;2022-11-15T08:00:11;6.50;99.90
17851;DHT22;9051;51.548;14.348;2022-11-15T08:03:04;6.50;99.90
17851;DHT22;9051;51.548;14.348;2022-11-15T08:05:54;6.60;99.90
17851;DHT22;9051;51.548;14.348;2022-11-15T08:08:46;6.60;99.90
17851;DHT22;9051;51.548;14.348;2022-11-15T08:11:38;6.70;99.90
17851;DHT22;9051;51.548;14.348;2022-11-15T08:14:29;6.80;99.90
17851;DHT22;9051;51.548;14.348;2022-11-15T08:17:20;6.90;99.90
17851;DHT22;9051;51.548;14.348;2022-11-15T08:20:11;6.90;99.90
17851;DHT22;9051;51.548;14.348;2022-11-15T08:23:03;7.00;99.90
17851;DHT22;9051;51.548;14.348;2022-11-15T08:25:59;7.00;99.90
17851;DHT22;9051;51.548;14.348;2022-11-15T08:28:53;7.00;99.90
17851;DHT22;9051;51.548;14.348;2022-11-15T08:31:43;7.10;99.90
17851;DHT22;9051;51.548;14.348;2022-11-15T08:34:34;7.10;99.90
17851;DHT22;9051;51.548;14.348;2022-11-15T08:37:25;7.20;99.90
17851;DHT22;9051;51.548;14.348;2022-11-15T08:40:16;7.30;99.90
17851;DHT22;9051;51.548;14.348;2022-11-15T08:43:07;7.30;99.90
17851;DHT22;9051;51.548;14.348;2022-11-15T08:45:59;7.40;99.90
17851;DHT22;9051;51.548;14.348;2022-11-15T08:48:50;7.40;99.90
17851;DHT22;9051;51.548;14.348;2022-11-15T08:51:41;7.50;99.90
17851;DHT22;9051;51.548;14.348;2022-11-15T08:54:32;7.50;99.90
17851;DHT22;9051;51.548;14.348;2022-11-15T08:57:23;7.70;99.90
17851;DHT22;9051;51.548;14.348;2022-11-15T09:00:15;7.80;99.90
17851;DHT22;9051;51.548;14.348;2022-11-15T09:03:08;7.90;99.90
17851;DHT22;9051;51.548;14.348;2022-11-15T09:06:00;8.00;99.90
17851;DHT22;9051;51.548;14.348;2022-11-15T09:08:51;8.10;99.90
17851;DHT22;9051;51.548;14.348;2022-11-15T09:11:41;8.20;99.90
17851;DHT22;9051;51.548;14.348;2022-11-15T09:14:33;8.30;99.90
17851;DHT22;9051;51.548;14.348;2022-11-15T09:17:23;8.30;99.90
17851;DHT22;9051;51.548;14.348;2022-11-15T09:20:16;8.40;99.90
17851;DHT22;9051;51.548;14.348;2022-11-15T09:23:07;8.60;99.90
17851;DHT22;9051;51.548;14.348;2022-11-15T09:25:59;8.70;99.90
17851;DHT22;9051;51.548;14.348;2022-11-15T09:28:50;8.80;99.90
17851;DHT22;9051;51.548;14.348;2022-11-15T09:31:40;8.90;99.90
17851;DHT22;9051;51.548;14.348;2022-11-15T09:34:31;8.90;99.90
17851;DHT22;9051;51.548;14.348;2022-11-15T09:37:24;9.00;99.90
17851;DHT22;9051;51.548;14.348;2022-11-15T09:40:16;9.10;99.90
17851;DHT22;9051;51.548;14.348;2022-11-15T09:43:27;9.20;99.90
17851;DHT22;9051;51.548;14.348;2022-11-15T09:46:25;9.30;99.90
17851;DHT22;9051;51.548;14.348;2022-11-15T09:49:19;9.40;99.90
17851;DHT22;9051;51.548;14.348;2022-11-15T09:52:10;9.50;99.90
17851;DHT22;9051;51.548;14.348;2022-11-15T09:54:47;9.60;99.90
17851;DHT22;9051;51.548;14.348;2022-11-15T09:57:29;9.70;99.90
17851;DHT22;9051;51.548;14.348;2022-11-15T10:00:10;9.90;99.90
17851;DHT22;9051;51.548;14.348;2022-11-15T10:02:56;10.00;99.90
17851;DHT22;9051;51.548;14.348;2022-11-15T10:05:30;10.10;99.90
17851;DHT22;9051;51.548;14.348;2022-11-15T10:08:20;10.20;99.90
17851;DHT22;9051;51.548;14.348;2022-11-15T10:10:58;10.20;99.90
17851;DHT22;9051;51.548;14.348;2022-11-15T10:13:33;10.30;99.90
17851;DHT22;9051;51.548;14.348;2022-11-15T10:16:14;10.30;99.90
17851;DHT22;9051;51.548;14.348;2022-11-15T10:18:53;10.50;99.90
17851;DHT22;9051;51.548;14.348;2022-11-15T10:21:37;10.60;99.90
17851;DHT22;9051;51.548;14.348;2022-11-15T10:24:13;10.70;99.90
17851;DHT22;9051;51.548;14.348;2022-11-15T10:26:51;10.70;99.90
17851;DHT22;9051;51.548;14.348;2022-11-15T10:29:24;10.80;99.90
17851;DHT22;9051;51.548;14.348;2022-11-15T10:31:56;10.90;99.90
17851;DHT22;9051;51.548;14.348;2022-11-15T10:34:28;11.00;99.90
17851;DHT22;9051;51.548;14.348;2022-11-15T10:37:00;11.10;99.90
17851;DHT22;9051;51.548;14.348;2022-11-15T10:39:33;11.20;99.90
17851;DHT22;9051;51.548;14.348;2022-11-15T10:42:17;11.20;99.90
17851;DHT22;9051;51.548;14.348;2022-11-15T10:44:50;11.40;99.90
17851;DHT22;9051;51.548;14.348;2022-11-15T10:47:27;11.50;99.90
17851;DHT22;9051;51.548;14.348;2022-11-15T10:50:05;11.60;99.90
17851;DHT22;9051;51.548;14.348;2022-11-15T10:52:45;11.60;99.90
17851;DHT22;9051;51.548;14.348;2022-11-15T10:55:25;11.70;99.90
17851;DHT22;9051;51.548;14.348;2022-11-15T10:58:02;11.80;99.90
17851;DHT22;9051;51.548;14.348;2022-11-15T11:00:36;11.80;99.90
17851;DHT22;9051;51.548;14.348;2022-11-15T11:03:29;11.90;99.90
17851;DHT22;9051;51.548;14.348;2022-11-15T11:06:06;12.00;99.90
17851;DHT22;9051;51.548;14.348;2022-11-15T11:08:39;12.10;99.90
17851;DHT22;9051;51.548;14.348;2022-11-15T11:11:12;12.20;99.90
17851;DHT22;9051;51.548;14.348;2022-11-15T11:13:46;12.20;99.90
17851;DHT22;9051;51.548;14.348;2022-11-15T11:16:26;12.40;99.90
17851;DHT22;9051;51.548;14.348;2022-11-15T11:19:13;12.40;99.90
17851;DHT22;9051;51.548;14.348;2022-11-15T11:21:54;12.50;99.90
17851;DHT22;9051;51.548;14.348;2022-11-15T11:24:34;12.50;99.90
17851;DHT22;9051;51.548;14.348;2022-11-15T11:27:19;12.60;99.90
17851;DHT22;9051;51.548;14.348;2022-11-15T11:30:04;12.80;99.90
17851;DHT22;9051;51.548;14.348;2022-11-15T11:32:55;12.90;99.90
17851;DHT22;9051;51.548;14.348;2022-11-15T11:35:32;13.00;99.90
17851;DHT22;9051;51.548;14.348;2022-11-15T11:38:31;13.00;99.90
17851;DHT22;9051;51.548;14.348;2022-11-15T11:41:13;13.10;99.90
17851;DHT22;9051;51.548;14.348;2022-11-15T11:43:54;13.20;99.90
17851;DHT22;9051;51.548;14.348;2022-11-15T11:46:41;13.20;99.90
17851;DHT22;9051;51.548;14.348;2022-11-15T11:49:20;13.40;99.90
17851;DHT22;9051;51.548;14.348;2022-11-15T11:51:58;13.40;99.90
17851;DHT22;9051;51.548;14.348;2022-11-15T11:54:39;13.60;99.90
17851;DHT22;9051;51.548;14.348;2022-11-15T11:57:17;13.80;99.90
17851;DHT22;9051;51.548;14.348;2022-11-15T11:59:56;13.90;99.90
17851;DHT22;9051;51.548;14.348;2022-11-15T12:05:12;14.10;99.90
17851;DHT22;9051;51.548;14.348;2022-11-15T12:07:47;14.20;99.90
17851;DHT22;9051;51.548;14.348;2022-11-15T12:10:24;14.20;99.90
17851;DHT22;9051;51.548;14.348;2022-11-15T12:13:02;14.20;99.90
17851;DHT22;9051;51.548;14.348;2022-11-15T12:15:41;14.30;99.90
17851;DHT22;9051;51.548;14.348;2022-11-15T12:18:16;14.40;99.90
17851;DHT22;9051;51.548;14.348;2022-11-15T12:20:52;14.40;99.90
17851;DHT22;9051;51.548;14.348;2022-11-15T12:23:28;14.50;99.90
17851;DHT22;9051;51.548;14.348;2022-11-15T12:26:04;14.70;99.90
17851;DHT22;9051;51.548;14.348;2022-11-15T12:28:40;14.80;99.90
17851;DHT22;9051;51.548;14.348;2022-11-15T12:31:16;15.00;99.90
17851;DHT22;9051;51.548;14.348;2022-11-15T12:33:56;15.10;99.90
17851;DHT22;9051;51.548;14.348;2022-11-15T12:36:36;15.10;99.90
17851;DHT22;9051;51.548;14.348;2022-11-15T12:39:09;15.20;99.90
17851;DHT22;9051;51.548;14.348;2022-11-15T12:41:43;15.30;99.90
17851;DHT22;9051;51.548;14.348;2022-11-15T12:44:56;15.30;99.90
17851;DHT22;9051;51.548;14.348;2022-11-15T12:47:30;15.30;99.90
17851;DHT22;9051;51.548;14.348;2022-11-15T12:50:03;15.20;99.90
17851;DHT22;9051;51.548;14.348;2022-11-15T12:52:35;15.30;99.90
17851;DHT22;9051;51.548;14.348;2022-11-15T12:55:29;15.40;99.90
17851;DHT22;9051;51.548;14.348;2022-11-15T12:58:24;15.50;99.90
17851;DHT22;9051;51.548;14.348;2022-11-15T13:00:58;15.40;99.90
17851;DHT22;9051;51.548;14.348;2022-11-15T13:03:34;15.50;99.90
17851;DHT22;9051;51.548;14.348;2022-11-15T13:12:51;15.60;99.90
17851;DHT22;9051;51.548;14.348;2022-11-15T13:15:35;15.70;99.90
17851;DHT22;9051;51.548;14.348;2022-11-15T13:18:31;15.80;99.90
17851;DHT22;9051;51.548;14.348;2022-11-15T13:21:18;15.70;99.90
17851;DHT22;9051;51.548;14.348;2022-11-15T13:24:13;15.70;99.90
17851;DHT22;9051;51.548;14.348;2022-11-15T13:26:47;15.90;99.90
17851;DHT22;9051;51.548;14.348;2022-11-15T13:29:20;15.80;99.90
17851;DHT22;9051;51.548;14.348;2022-11-15T13:31:53;15.80;99.90
17851;DHT22;9051;51.548;14.348;2022-11-15T13:34:30;15.80;99.90
17851;DHT22;9051;51.548;14.348;2022-11-15T13:37:09;15.80;99.90
17851;DHT22;9051;51.548;14.348;2022-11-15T13:39:44;15.70;99.90
17851;DHT22;9051;51.548;14.348;2022-11-15T13:42:20;15.60;99.90
17851;DHT22;9051;51.548;14.348;2022-11-15T13:44:56;15.60;99.90
17851;DHT22;9051;51.548;14.348;2022-11-15T13:47:30;15.40;99.90
17851;DHT22;9051;51.548;14.348;2022-11-15T13:50:05;15.20;99.90
17851;DHT22;9051;51.548;14.348;2022-11-15T13:52:40;15.10;99.90
17851;DHT22;9051;51.548;14.348;2022-11-15T13:55:16;15.00;99.90
17851;DHT22;9051;51.548;14.348;2022-11-15T13:57:52;14.90;99.90
17851;DHT22;9051;51.548;14.348;2022-11-15T14:00:30;14.70;99.90
17851;DHT22;9051;51.548;14.348;2022-11-15T14:03:11;14.70;99.90
17851;DHT22;9051;51.548;14.348;2022-11-15T14:06:02;14.50;99.90
17851;DHT22;9051;51.548;14.348;2022-11-15T14:08:35;14.40;99.90
17851;DHT22;9051;51.548;14.348;2022-11-15T14:11:13;14.20;99.90
17851;DHT22;9051;51.548;14.348;2022-11-15T14:14:04;14.10;99.90
17851;DHT22;9051;51.548;14.348;2022-11-15T14:16:38;13.90;99.90
17851;DHT22;9051;51.548;14.348;2022-11-15T14:19:12;13.80;99.90
17851;DHT22;9051;51.548;14.348;2022-11-15T14:22:08;13.70;99.90
17851;DHT22;9051;51.548;14.348;2022-11-15T14:24:42;13.60;99.90
17851;DHT22;9051;51.548;14.348;2022-11-15T14:27:23;13.50;99.90
17851;DHT22;9051;51.548;14.348;2022-11-15T14:29:56;13.40;99.90
17851;DHT22;9051;51.548;14.348;2022-11-15T14:32:39;13.30;99.90
17851;DHT22;9051;51.548;14.348;2022-11-15T14:35:16;13.10;99.90
17851;DHT22;9051;51.548;14.348;2022-11-15T14:37:51;13.00;99.90
17851;DHT22;9051;51.548;14.348;2022-11-15T14:40:24;12.90;99.90
17851;DHT22;9051;51.548;14.348;2022-11-15T14:42:57;12.80;99.90
17851;DHT22;9051;51.548;14.348;2022-11-15T14:45:29;12.70;99.90
17851;DHT22;9051;51.548;14.348;2022-11-15T14:48:01;12.60;99.90
17851;DHT22;9051;51.548;14.348;2022-11-15T14:50:33;12.60;99.90
17851;DHT22;9051;51.548;14.348;2022-11-15T14:53:12;12.50;99.90
17851;DHT22;9051;51.548;14.348;2022-11-15T14:55:45;12.40;99.90
17851;DHT22;9051;51.548;14.348;2022-11-15T14:58:17;12.40;99.90
17851;DHT22;9051;51.548;14.348;2022-11-15T15:00:49;12.30;99.90
17851;DHT22;9051;51.548;14.348;2022-11-15T15:03:21;12.20;99.90
17851;DHT22;9051;51.548;14.348;2022-11-15T15:05:53;12.10;99.90
17851;DHT22;9051;51.548;14.348;2022-11-15T15:08:28;12.00;99.90
17851;DHT22;9051;51.548;14.348;2022-11-15T15:11:00;11.90;99.90
17851;DHT22;9051;51.548;14.348;2022-11-15T15:13:32;11.80;99.90
17851;DHT22;9051;51.548;14.348;2022-11-15T15:16:05;11.70;99.90
17851;DHT22;9051;51.548;14.348;2022-11-15T15:18:38;11.60;99.90
17851;DHT22;9051;51.548;14.348;2022-11-15T15:21:19;11.50;99.90
17851;DHT22;9051;51.548;14.348;2022-11-15T15:23:54;11.30;99.90
17851;DHT22;9051;51.548;14.348;2022-11-15T15:26:26;11.20;99.90
17851;DHT22;9051;51.548;14.348;2022-11-15T15:28:59;11.10;99.90
17851;DHT22;9051;51.548;14.348;2022-11-15T15:31:30;11.00;99.90
17851;DHT22;9051;51.548;14.348;2022-11-15T15:34:04;10.90;99.90
17851;DHT22;9051;51.548;14.348;2022-11-15T15:36:36;10.80;99.90
17851;DHT22;9051;51.548;14.348;2022-11-15T15:39:10;10.70;99.90
17851;DHT22;9051;51.548;14.348;2022-11-15T15:41:42;10.60;99.90
17851;DHT22;9051;51.548;14.348;2022-11-15T15:44:14;10.50;99.90
17851;DHT22;9051;51.548;14.348;2022-11-15T15:46:46;10.40;99.90
17851;DHT22;9051;51.548;14.348;2022-11-15T15:49:18;10.30;99.90
17851;DHT22;9051;51.548;14.348;2022-11-15T15:51:50;10.20;99.90
17851;DHT22;9051;51.548;14.348;2022-11-15T15:54:23;10.10;99.90
17851;DHT22;9051;51.548;14.348;2022-11-15T15:56:56;10.20;99.90
17851;DHT22;9051;51.548;14.348;2022-11-15T15:59:28;10.10;99.90
17851;DHT22;9051;51.548;14.348;2022-11-15T16:02:00;10.10;99.90
17851;DHT22;9051;51.548;14.348;2022-11-15T16:04:34;10.00;99.90
17851;DHT22;9051;51.548;14.348;2022-11-15T16:07:15;10.00;99.90
17851;DHT22;9051;51.548;14.348;2022-11-15T16:09:50;9.90;99.90
17851;DHT22;9051;51.548;14.348;2022-11-15T16:12:35;9.80;99.90
17851;DHT22;9051;51.548;14.348;2022-11-15T16:15:10;9.70;99.90
17851;DHT22;9051;51.548;14.348;2022-11-15T16:17:46;9.60;99.90
17851;DHT22;9051;51.548;14.348;2022-11-15T16:20:29;9.50;99.90
17851;DHT22;9051;51.548;14.348;2022-11-15T16:23:02;9.40;99.90
17851;DHT22;9051;51.548;14.348;2022-11-15T16:25:38;9.40;99.90
17851;DHT22;9051;51.548;14.348;2022-11-15T16:28:17;9.30;99.90
17851;DHT22;9051;51.548;14.348;2022-11-15T16:30:59;9.30;99.90
17851;DHT22;9051;51.548;14.348;2022-11-15T16:33:32;9.20;99.90
17851;DHT22;9051;51.548;14.348;2022-11-15T16:36:05;9.10;99.90
17851;DHT22;9051;51.548;14.348;2022-11-15T16:38:37;9.00;99.90
17851;DHT22;9051;51.548;14.348;2022-11-15T16:41:11;8.90;99.90
17851;DHT22;9051;51.548;14.348;2022-11-15T16:43:43;8.80;99.90
17851;DHT22;9051;51.548;14.348;2022-11-15T16:46:20;8.70;99.90
17851;DHT22;9051;51.548;14.348;2022-11-15T16:48:54;8.70;99.90
17851;DHT22;9051;51.548;14.348;2022-11-15T16:51:26;8.70;99.90
17851;DHT22;9051;51.548;14.348;2022-11-15T16:53:58;8.60;99.90
17851;DHT22;9051;51.548;14.348;2022-11-15T16:56:32;8.50;99.90
17851;DHT22;9051;51.548;14.348;2022-11-15T16:59:05;8.50;99.90
17851;DHT22;9051;51.548;14.348;2022-11-15T17:01:37;8.50;99.90
17851;DHT22;9051;51.548;14.348;2022-11-15T17:04:17;8.40;99.90
17851;DHT22;9051;51.548;14.348;2022-11-15T17:06:49;8.30;99.90
17851;DHT22;9051;51.548;14.348;2022-11-15T17:09:22;8.20;99.90
17851;DHT22;9051;51.548;14.348;2022-11-15T17:11:55;8.20;99.90
17851;DHT22;9051;51.548;14.348;2022-11-15T17:14:28;8.10;99.90
17851;DHT22;9051;51.548;14.348;2022-11-15T17:17:00;8.20;99.90
17851;DHT22;9051;51.548;14.348;2022-11-15T17:19:33;8.10;99.90
17851;DHT22;9051;51.548;14.348;2022-11-15T17:22:05;8.10;99.90
17851;DHT22;9051;51.548;14.348;2022-11-15T17:24:37;8.10;99.90
17851;DHT22;9051;51.548;14.348;2022-11-15T17:27:11;8.00;99.90
17851;DHT22;9051;51.548;14.348;2022-11-15T17:29:43;8.00;99.90
17851;DHT22;9051;51.548;14.348;2022-11-15T17:32:15;8.00;99.90
17851;DHT22;9051;51.548;14.348;2022-11-15T17:34:47;8.00;99.90
17851;DHT22;9051;51.548;14.348;2022-11-15T17:37:19;7.90;99.90
17851;DHT22;9051;51.548;14.348;2022-11-15T17:39:51;7.90;99.90
17851;DHT22;9051;51.548;14.348;2022-11-15T17:42:24;7.90;99.90
17851;DHT22;9051;51.548;14.348;2022-11-15T17:44:56;7.90;99.90